createdAt,value
2022-09-04T00:02:40.225Z,7.37
2022-09-04T00:05:17.270Z,5.87
2022-09-04T00:08:02.268Z,6.40
2022-09-04T00:10:34.403Z,6.60
2022-09-04T00:13:10.928Z,8.40
2022-09-04T00:15:44.937Z,6.80
2022-09-04T00:18:20.802Z,7.20
2022-09-04T00:20:54.201Z,7.00
2022-09-04T00:23:27.910Z,7.60
2022-09-04T00:26:03.909Z,6.87
2022-09-04T00:28:38.929Z,7.60
2022-09-04T00:31:21.959Z,6.13
2022-09-04T00:33:55.912Z,4.70
2022-09-04T00:36:28.421Z,5.27
2022-09-04T00:39:01.293Z,6.77
2022-09-04T00:41:33.385Z,6.33
2022-09-04T00:44:20.464Z,5.47
2022-09-04T00:47:30.667Z,6.57
2022-09-04T00:50:14.789Z,6.27
2022-09-04T00:53:02.465Z,4.17
2022-09-04T00:55:50.822Z,6.40
2022-09-04T00:58:45.102Z,5.77
2022-09-04T01:01:24.159Z,9.37
2022-09-04T01:04:24.658Z,10.63
2022-09-04T01:07:04.876Z,8.57
2022-09-04T01:09:54.402Z,6.80
2022-09-04T01:12:37.480Z,8.47
2022-09-04T01:15:15.689Z,7.13
2022-09-04T01:17:56.299Z,6.80
2022-09-04T01:20:44.149Z,7.03
2022-09-04T01:23:32.165Z,6.17
2022-09-04T01:26:10.210Z,8.13
2022-09-04T01:28:51.688Z,8.97
2022-09-04T01:31:27.793Z,7.97
2022-09-04T01:34:10.772Z,7.60
2022-09-04T01:36:47.652Z,9.50
2022-09-04T01:39:18.517Z,10.50
2022-09-04T01:41:57.267Z,8.00
2022-09-04T01:44:27.305Z,5.90
2022-09-04T01:47:09.741Z,6.70
2022-09-04T01:49:39.971Z,9.10
2022-09-04T01:52:28.894Z,8.53
2022-09-04T01:55:09.462Z,7.80
2022-09-04T01:57:52.544Z,7.40
2022-09-04T02:00:23.228Z,6.13
2022-09-04T02:03:02.357Z,7.90
2022-09-04T02:05:48.370Z,7.40
2022-09-04T02:08:42.191Z,6.47
2022-09-04T02:11:16.897Z,4.53
2022-09-04T02:14:08.876Z,9.23
2022-09-04T02:16:46.805Z,7.73
2022-09-04T02:19:32.670Z,6.93
2022-09-04T02:22:12.991Z,5.50
2022-09-04T02:24:49.881Z,5.97
2022-09-04T02:27:27.508Z,7.33
2022-09-04T02:30:02.722Z,5.93
2022-09-04T02:32:38.982Z,9.03
2022-09-04T02:35:16.619Z,5.20
2022-09-04T02:37:55.401Z,4.67
2022-09-04T02:40:31.096Z,8.40
2022-09-04T02:43:16.632Z,4.37
2022-09-04T02:45:51.758Z,6.00
2022-09-04T02:48:29.690Z,6.10
2022-09-04T02:51:13.939Z,5.33
2022-09-04T02:53:52.418Z,5.73
2022-09-04T02:56:31.907Z,4.83
2022-09-04T02:59:16.296Z,6.80
2022-09-04T03:01:52.000Z,4.80
2022-09-04T03:04:25.506Z,6.83
2022-09-04T03:06:58.413Z,5.80
2022-09-04T03:09:32.359Z,5.87
2022-09-04T03:12:05.662Z,4.80
2022-09-04T03:14:39.162Z,7.10
2022-09-04T03:17:17.369Z,6.40
2022-09-04T03:19:51.576Z,7.60
2022-09-04T03:22:24.696Z,5.50
2022-09-04T03:25:18.032Z,8.60
2022-09-04T03:27:48.526Z,4.43
2022-09-04T03:30:17.397Z,5.67
2022-09-04T03:32:52.994Z,5.80
2022-09-04T03:35:28.727Z,5.27
2022-09-04T03:38:10.034Z,5.47
2022-09-04T03:40:41.747Z,6.80
2022-09-04T03:43:26.392Z,6.20
2022-09-04T03:46:00.988Z,6.07
2022-09-04T03:48:45.825Z,4.93
2022-09-04T03:51:24.393Z,4.73
2022-09-04T03:54:04.536Z,8.00
2022-09-04T03:57:08.188Z,6.17
2022-09-04T03:59:54.865Z,4.53
2022-09-04T04:02:31.287Z,4.97
2022-09-04T04:05:20.400Z,6.67
2022-09-04T04:07:59.590Z,5.67
2022-09-04T04:10:35.483Z,6.30
2022-09-04T04:13:22.054Z,5.83
2022-09-04T04:16:04.388Z,8.13
2022-09-04T04:18:54.113Z,6.50
2022-09-04T04:21:33.108Z,4.50
2022-09-04T04:24:39.266Z,5.80
2022-09-04T04:27:23.580Z,6.10
2022-09-04T04:30:14.511Z,4.40
2022-09-04T04:33:09.798Z,4.93
2022-09-04T04:35:45.837Z,5.10
2022-09-04T04:38:31.074Z,3.67
2022-09-04T04:41:10.132Z,6.30
2022-09-04T04:43:50.652Z,3.97
2022-09-04T04:46:27.595Z,3.80
2022-09-04T04:49:18.918Z,4.93
2022-09-04T04:52:05.207Z,3.73
2022-09-04T04:55:06.404Z,3.40
2022-09-04T04:57:47.318Z,3.70
2022-09-04T05:00:22.858Z,3.20
2022-09-04T05:03:07.603Z,2.90
2022-09-04T05:05:53.208Z,6.30
2022-09-04T05:08:34.349Z,3.20
2022-09-04T05:11:09.820Z,3.97
2022-09-04T05:13:48.642Z,4.00
2022-09-04T05:16:27.114Z,3.47
2022-09-04T05:19:00.633Z,3.60
2022-09-04T05:21:38.364Z,5.73
2022-09-04T05:24:15.744Z,3.17
2022-09-04T05:26:52.824Z,4.60
2022-09-04T05:29:31.821Z,2.90
2022-09-04T05:32:06.432Z,2.67
2022-09-04T05:35:00.079Z,4.97
2022-09-04T05:37:36.660Z,4.07
2022-09-04T05:40:15.565Z,4.47
2022-09-04T05:42:52.476Z,3.07
2022-09-04T05:45:26.649Z,5.80
2022-09-04T05:48:03.609Z,3.00
2022-09-04T05:50:46.032Z,6.87
2022-09-04T05:53:41.195Z,5.00
2022-09-04T05:56:51.191Z,5.03
2022-09-04T05:59:48.506Z,5.30
2022-09-04T06:02:59.348Z,4.03
2022-09-04T06:05:36.677Z,6.93
2022-09-04T06:08:16.422Z,2.70
2022-09-04T06:11:00.327Z,7.10
2022-09-04T06:13:52.272Z,5.67
2022-09-04T06:16:49.407Z,3.97
2022-09-04T06:19:34.826Z,4.93
2022-09-04T06:22:22.825Z,3.70
2022-09-04T06:25:30.378Z,3.90
2022-09-04T06:28:17.635Z,5.50
2022-09-04T06:30:52.602Z,4.47
2022-09-04T06:33:35.911Z,6.47
2022-09-04T06:36:34.198Z,3.83
2022-09-04T06:39:19.032Z,4.73
2022-09-04T06:42:17.419Z,4.20
2022-09-04T06:44:57.447Z,3.80
2022-09-04T06:47:40.635Z,3.87
2022-09-04T06:50:24.704Z,3.20
2022-09-04T06:53:18.321Z,6.10
2022-09-04T06:55:58.341Z,4.50
2022-09-04T06:58:50.150Z,4.03
2022-09-04T07:01:26.377Z,3.20
2022-09-04T07:04:10.020Z,4.53
2022-09-04T07:06:51.580Z,4.97
2022-09-04T07:09:24.292Z,6.83
2022-09-04T07:12:13.161Z,4.30
2022-09-04T07:15:12.093Z,4.30
2022-09-04T07:17:53.624Z,5.23
2022-09-04T07:20:32.991Z,4.57
2022-09-04T07:23:22.643Z,3.20
2022-09-04T07:26:02.241Z,6.80
2022-09-04T07:28:49.681Z,3.27
2022-09-04T07:31:24.553Z,4.43
2022-09-04T07:34:01.413Z,4.00
2022-09-04T07:36:35.573Z,4.83
2022-09-04T07:39:15.416Z,4.50
2022-09-04T07:41:48.520Z,4.60
2022-09-04T07:44:24.305Z,3.87
2022-09-04T07:47:00.304Z,5.70
2022-09-04T07:49:36.036Z,4.23
2022-09-04T07:52:13.358Z,4.87
2022-09-04T07:55:03.178Z,4.57
2022-09-04T07:58:02.512Z,7.10
2022-09-04T08:00:40.683Z,4.50
2022-09-04T08:03:29.390Z,6.93
2022-09-04T08:06:02.676Z,4.03
2022-09-04T08:09:09.322Z,3.27
2022-09-04T08:12:04.439Z,5.47
2022-09-04T08:14:53.121Z,6.73
2022-09-04T08:17:47.836Z,3.70
2022-09-04T08:20:33.960Z,6.67
2022-09-04T08:23:16.554Z,6.20
2022-09-04T08:25:55.908Z,3.80
2022-09-04T08:28:46.447Z,3.70
2022-09-04T08:31:22.276Z,4.20
2022-09-04T08:34:33.007Z,5.00
2022-09-04T08:37:12.659Z,5.53
2022-09-04T08:39:54.314Z,4.20
2022-09-04T08:42:49.649Z,3.90
2022-09-04T08:45:49.539Z,5.23
2022-09-04T08:48:52.743Z,5.90
2022-09-04T08:51:59.470Z,5.80
2022-09-04T08:55:03.389Z,5.43
2022-09-04T08:58:00.721Z,5.23
2022-09-04T09:00:36.693Z,6.80
2022-09-04T09:03:54.710Z,4.60
2022-09-04T09:06:55.649Z,5.47
2022-09-04T09:09:51.852Z,4.33
2022-09-04T09:12:52.516Z,5.63
2022-09-04T09:15:39.381Z,4.37
2022-09-04T09:18:34.040Z,5.30
2022-09-04T09:21:08.911Z,5.50
2022-09-04T09:23:56.316Z,3.87
2022-09-04T09:26:29.477Z,4.40
2022-09-04T09:29:33.412Z,6.70
2022-09-04T09:32:35.145Z,5.23
2022-09-04T09:35:42.038Z,5.50
2022-09-04T09:38:52.122Z,6.60
2022-09-04T09:41:50.898Z,5.87
2022-09-04T09:44:50.102Z,5.10
2022-09-04T09:48:12.392Z,5.83
2022-09-04T09:51:39.757Z,7.10
2022-09-04T09:54:42.438Z,5.30
2022-09-04T09:57:37.365Z,4.27
2022-09-04T10:00:25.820Z,6.50
2022-09-04T10:03:30.622Z,8.03
2022-09-04T10:06:32.826Z,7.80
2022-09-04T10:09:44.985Z,5.43
2022-09-04T10:12:59.247Z,6.47
2022-09-04T10:16:17.473Z,5.40
2022-09-04T10:19:30.766Z,5.23
2022-09-04T10:22:52.250Z,4.50
2022-09-04T10:26:00.146Z,6.27
2022-09-04T10:29:12.364Z,5.90
2022-09-04T10:32:06.638Z,6.50
2022-09-04T10:35:05.097Z,7.63
2022-09-04T10:37:53.989Z,8.20
2022-09-04T10:40:43.796Z,5.40
2022-09-04T10:43:37.818Z,6.20
2022-09-04T10:46:23.238Z,6.30
2022-09-04T10:49:28.245Z,6.60
2022-09-04T10:52:26.792Z,7.80
2022-09-04T10:55:27.915Z,6.83
2022-09-04T10:58:15.144Z,7.97
2022-09-04T11:00:54.556Z,5.23
2022-09-04T11:03:44.507Z,5.73
2022-09-04T11:07:02.378Z,5.20
2022-09-04T11:09:57.441Z,6.00
2022-09-04T11:12:47.114Z,6.73
2022-09-04T11:15:48.550Z,4.90
2022-09-04T11:19:10.459Z,4.73
2022-09-04T11:22:14.728Z,4.37
2022-09-04T11:25:39.842Z,5.40
2022-09-04T11:28:29.498Z,5.80
2022-09-04T11:31:13.826Z,5.77
2022-09-04T11:34:03.888Z,5.90
2022-09-04T11:36:53.654Z,5.30
2022-09-04T11:39:49.437Z,5.37
2022-09-04T11:42:44.596Z,6.10
2022-09-04T11:45:33.302Z,5.13
2022-09-04T11:48:26.594Z,7.30
2022-09-04T11:51:28.899Z,4.40
2022-09-04T11:54:38.635Z,4.50
2022-09-04T11:57:14.577Z,5.37
2022-09-04T12:00:12.470Z,4.23
2022-09-04T12:03:02.113Z,6.43
2022-09-04T12:05:51.149Z,4.93
2022-09-04T12:08:35.938Z,4.37
2022-09-04T12:11:40.250Z,4.63
2022-09-04T12:14:21.160Z,5.20
2022-09-04T12:17:36.435Z,4.07
2022-09-04T12:20:24.145Z,3.77
2022-09-04T12:23:25.705Z,5.53
2022-09-04T12:26:23.745Z,5.00
2022-09-04T12:29:24.839Z,6.17
2022-09-04T12:32:28.450Z,4.97
2022-09-04T12:35:34.851Z,4.50
2022-09-04T12:38:38.544Z,5.40
2022-09-04T12:41:13.623Z,3.80
2022-09-04T12:43:55.735Z,3.80
2022-09-04T12:46:39.472Z,5.40
2022-09-04T12:49:29.024Z,3.93
2022-09-04T12:52:09.776Z,6.07
2022-09-04T12:54:52.437Z,4.80
2022-09-04T12:57:32.994Z,6.20
2022-09-04T13:00:09.749Z,4.13
2022-09-04T13:02:53.654Z,4.00
2022-09-04T13:05:53.305Z,5.37
2022-09-04T13:08:33.065Z,4.80
2022-09-04T13:11:14.922Z,3.83
2022-09-04T13:13:55.602Z,3.80
2022-09-04T13:16:31.044Z,6.57
2022-09-04T13:19:12.012Z,5.33
2022-09-04T13:21:56.032Z,5.83
2022-09-04T13:24:44.125Z,6.20
2022-09-04T13:27:28.492Z,4.57
2022-09-04T13:30:06.733Z,4.80
2022-09-04T13:32:56.306Z,4.93
2022-09-04T13:35:43.350Z,5.73
2022-09-04T13:38:41.495Z,4.10
2022-09-04T13:41:31.001Z,3.97
2022-09-04T13:44:42.437Z,4.53
2022-09-04T13:47:15.703Z,3.30
2022-09-04T13:49:48.140Z,4.10
2022-09-04T13:52:24.329Z,5.40
2022-09-04T13:55:02.619Z,5.07
2022-09-04T13:57:38.287Z,4.43
2022-09-04T14:00:08.918Z,4.50
2022-09-04T14:02:39.207Z,4.40
2022-09-04T14:05:13.357Z,3.97
2022-09-04T14:07:45.239Z,3.93
2022-09-04T14:10:17.969Z,5.40
2022-09-04T14:13:05.538Z,4.60
2022-09-04T14:15:59.916Z,3.73
2022-09-04T14:18:55.723Z,4.90
2022-09-04T14:21:34.963Z,4.33
2022-09-04T14:24:10.780Z,5.20
2022-09-04T14:26:47.996Z,5.43
2022-09-04T14:29:26.470Z,5.73
2022-09-04T14:32:04.626Z,5.07
2022-09-04T14:34:46.843Z,6.40
2022-09-04T14:37:29.058Z,5.10
2022-09-04T14:40:03.217Z,3.80
2022-09-04T14:42:45.683Z,3.67
2022-09-04T14:45:30.938Z,4.30
2022-09-04T14:48:03.744Z,6.43
2022-09-04T14:50:44.397Z,5.87
2022-09-04T14:53:20.383Z,5.03
2022-09-04T14:56:16.749Z,4.13
2022-09-04T14:58:52.092Z,5.27
2022-09-04T15:01:24.497Z,4.40
2022-09-04T15:03:58.013Z,3.80
2022-09-04T15:06:32.496Z,4.70
2022-09-04T15:09:20.075Z,4.40
2022-09-04T15:12:04.325Z,4.00
2022-09-04T15:14:40.602Z,5.00
2022-09-04T15:17:14.823Z,3.60
2022-09-04T15:19:47.379Z,4.77
2022-09-04T15:22:20.619Z,4.50
2022-09-04T15:24:55.032Z,5.37
2022-09-04T15:27:29.411Z,3.90
2022-09-04T15:30:05.379Z,4.47
2022-09-04T15:32:41.912Z,3.30
2022-09-04T15:35:16.726Z,4.10
2022-09-04T15:37:48.363Z,2.87
2022-09-04T15:40:29.111Z,3.30
2022-09-04T15:43:07.696Z,3.73
2022-09-04T15:45:43.149Z,3.77
2022-09-04T15:48:27.813Z,3.60
2022-09-04T15:51:12.970Z,4.40
2022-09-04T15:53:46.423Z,4.10
2022-09-04T15:56:32.138Z,4.10
2022-09-04T15:59:09.628Z,4.27
2022-09-04T16:01:48.012Z,2.70
2022-09-04T16:04:26.456Z,3.93
2022-09-04T16:06:59.779Z,4.53
2022-09-04T16:09:33.711Z,3.80
2022-09-04T16:12:13.051Z,3.83
2022-09-04T16:14:48.410Z,3.63
2022-09-04T16:17:21.742Z,3.40
2022-09-04T16:20:00.235Z,3.33
2022-09-04T16:22:36.436Z,3.63
2022-09-04T16:25:11.090Z,3.90
2022-09-04T16:27:45.450Z,3.87
2022-09-04T16:30:33.074Z,4.07
2022-09-04T16:33:02.341Z,4.10
2022-09-04T16:35:37.083Z,3.20
2022-09-04T16:38:10.481Z,3.27
2022-09-04T16:40:48.674Z,3.70
2022-09-04T16:43:27.138Z,3.10
2022-09-04T16:46:07.874Z,3.60
2022-09-04T16:48:43.381Z,3.70
2022-09-04T16:51:40.343Z,4.00
2022-09-04T16:54:18.038Z,4.30
2022-09-04T16:56:50.827Z,3.90
2022-09-04T16:59:25.677Z,3.60
2022-09-04T17:02:01.521Z,3.50
2022-09-04T17:04:39.966Z,3.70
2022-09-04T17:07:17.375Z,3.63
2022-09-04T17:10:01.850Z,2.80
2022-09-04T17:12:49.439Z,3.13
2022-09-04T17:15:26.657Z,2.67
2022-09-04T17:17:56.354Z,3.20
2022-09-04T17:20:47.147Z,4.20
2022-09-04T17:28:54.533Z,3.97
2022-09-04T17:29:13.983Z,2.90
2022-09-04T17:32:28.309Z,3.27
2022-09-04T17:39:06.236Z,3.83
2022-09-04T17:40:55.090Z,3.30
2022-09-04T17:41:31.198Z,3.87
2022-09-04T17:44:05.638Z,3.13
2022-09-04T17:46:37.429Z,2.90
2022-09-04T17:49:20.161Z,2.70
2022-09-04T17:51:52.369Z,4.03
2022-09-04T17:54:28.797Z,3.33
2022-09-04T17:57:02.741Z,3.00
2022-09-04T17:59:40.456Z,3.70
2022-09-04T18:02:17.644Z,3.07
2022-09-04T18:04:53.372Z,3.23
2022-09-04T18:08:08.377Z,2.40
2022-09-04T18:10:28.381Z,3.23
2022-09-04T18:13:30.462Z,2.53
2022-09-04T18:16:16.190Z,3.03
2022-09-04T18:18:49.091Z,3.00
2022-09-04T18:21:23.994Z,3.30
2022-09-04T18:23:58.505Z,3.40
2022-09-04T18:26:40.463Z,2.93
2022-09-04T18:33:53.599Z,3.43
2022-09-04T18:37:22.080Z,3.50
2022-09-04T18:37:22.288Z,3.40
2022-09-04T18:38:20.630Z,3.93
2022-09-04T18:44:23.139Z,3.10
2022-09-04T18:50:28.224Z,4.37
2022-09-04T18:50:33.640Z,3.30
2022-09-04T18:50:36.799Z,2.83
2022-09-04T18:52:20.934Z,2.90
2022-09-04T18:54:55.436Z,3.03
2022-09-04T18:57:31.201Z,2.80
2022-09-04T19:00:08.059Z,3.87
2022-09-04T19:02:53.551Z,3.00
2022-09-04T19:05:24.269Z,3.53
2022-09-04T19:07:57.095Z,3.10
2022-09-04T19:10:28.102Z,3.10
2022-09-04T19:13:02.810Z,3.67
2022-09-04T19:15:49.141Z,3.40
2022-09-04T19:18:30.251Z,2.47
2022-09-04T19:21:26.669Z,5.13
2022-09-04T19:24:01.001Z,4.00
2022-09-04T19:26:38.029Z,3.40
2022-09-04T19:29:15.030Z,3.47
2022-09-04T19:31:51.614Z,3.10
2022-09-04T19:34:28.316Z,2.90
2022-09-04T19:37:43.414Z,2.73
2022-09-04T19:45:55.499Z,3.87
2022-09-04T19:46:09.322Z,3.30
2022-09-04T19:46:17.789Z,4.27
2022-09-04T19:49:03.639Z,3.10
2022-09-04T19:53:31.248Z,2.90
2022-09-04T19:54:36.699Z,3.13
2022-09-04T19:57:32.394Z,2.60
2022-09-04T20:00:43.065Z,3.17
2022-09-04T20:03:00.224Z,4.60
2022-09-04T20:05:30.761Z,4.40
2022-09-04T20:08:05.711Z,4.27
2022-09-04T20:10:42.363Z,2.60
2022-09-04T20:13:21.421Z,4.33
2022-09-04T20:15:57.012Z,3.17
2022-09-04T20:18:30.198Z,5.10
2022-09-04T20:21:04.174Z,3.20
2022-09-04T20:23:41.393Z,5.20
2022-09-04T20:26:17.657Z,3.60
2022-09-04T20:28:54.753Z,3.60
2022-09-04T20:31:35.990Z,2.60
2022-09-04T20:34:12.900Z,2.80
2022-09-04T20:36:49.487Z,3.00
2022-09-04T20:39:27.651Z,3.43
2022-09-04T20:41:59.968Z,2.73
2022-09-04T20:45:42.350Z,3.77
2022-09-04T20:52:42.724Z,3.30
2022-09-04T20:52:49.857Z,3.30
2022-09-04T20:53:29.060Z,3.57
2022-09-04T20:56:20.639Z,2.77
2022-09-04T21:03:08.578Z,3.27
2022-09-04T21:03:21.363Z,2.90
2022-09-04T21:05:23.102Z,2.60
2022-09-04T21:07:55.926Z,2.70
2022-09-04T21:10:31.051Z,2.13
2022-09-04T21:13:14.198Z,3.00
2022-09-04T21:15:53.875Z,2.47
2022-09-04T21:19:27.372Z,2.37
2022-09-04T21:21:57.514Z,2.23
2022-09-04T21:24:44.305Z,2.10
2022-09-04T21:27:29.341Z,2.37
2022-09-04T21:30:09.461Z,2.83
2022-09-04T21:33:21.494Z,2.50
2022-09-04T21:35:55.631Z,2.73
2022-09-04T21:38:49.036Z,2.63
2022-09-04T21:41:36.216Z,2.40
2022-09-04T21:44:50.475Z,2.53
2022-09-04T21:47:47.293Z,2.80
2022-09-04T21:50:52.635Z,2.20
2022-09-04T21:53:59.364Z,2.50
2022-09-04T22:01:46.817Z,2.70
2022-09-04T22:02:27.274Z,2.70
2022-09-04T22:03:19.357Z,2.63
2022-09-04T22:05:56.329Z,2.93
2022-09-04T22:13:32.484Z,3.43
2022-09-04T22:13:41.778Z,2.83
2022-09-04T22:14:39.842Z,2.57
2022-09-04T22:17:20.691Z,2.77
2022-09-04T22:20:19.551Z,2.57
2022-09-04T22:23:20.222Z,2.23
2022-09-04T22:26:24.025Z,2.50
2022-09-04T22:29:16.197Z,2.30
2022-09-04T22:32:29.733Z,2.20
2022-09-04T22:35:25.289Z,2.73
2022-09-04T22:38:45.876Z,3.50
2022-09-04T22:41:45.247Z,2.37
2022-09-04T22:44:27.633Z,2.53
2022-09-04T22:47:30.007Z,3.23
2022-09-04T22:50:50.158Z,2.20
2022-09-04T22:53:39.030Z,2.10
2022-09-04T22:56:24.607Z,2.60
2022-09-04T22:59:30.591Z,2.53
2022-09-04T23:02:48.180Z,3.10
2022-09-04T23:05:50.028Z,1.97
2022-09-04T23:13:43.487Z,2.53
2022-09-04T23:13:46.785Z,2.30
2022-09-04T23:14:42.822Z,2.30
2022-09-04T23:17:37.172Z,1.93
2022-09-04T23:26:36.371Z,2.13
2022-09-04T23:26:53.270Z,2.67
2022-09-04T23:27:28.372Z,2.67
2022-09-04T23:30:25.659Z,2.30
2022-09-04T23:33:43.121Z,2.00
2022-09-04T23:36:33.475Z,2.10
2022-09-04T23:39:29.967Z,1.90
2022-09-04T23:42:11.681Z,2.33
2022-09-04T23:45:02.013Z,1.97
2022-09-04T23:47:57.204Z,1.80
2022-09-04T23:50:39.909Z,2.40
2022-09-04T23:53:22.720Z,2.10
2022-09-04T23:56:13.530Z,2.13
2022-09-04T23:59:21.304Z,2.50
